createdAt,value
2023-03-30T00:01:42.122Z,11.80
2023-03-30T00:04:11.767Z,11.80
2023-03-30T00:06:39.318Z,11.90
2023-03-30T00:09:07.007Z,11.80
2023-03-30T00:11:35.938Z,11.80
2023-03-30T00:14:02.843Z,11.70
2023-03-30T00:16:30.339Z,11.80
2023-03-30T00:18:57.449Z,11.80
2023-03-30T00:21:24.983Z,11.80
2023-03-30T00:23:52.769Z,11.80
2023-03-30T00:26:19.732Z,11.80
2023-03-30T00:28:48.049Z,11.80
2023-03-30T00:31:15.476Z,11.60
2023-03-30T00:33:46.953Z,11.60
2023-03-30T00:36:15.833Z,11.70
2023-03-30T00:38:44.547Z,11.70
2023-03-30T00:41:12.209Z,11.70
2023-03-30T00:44:00.018Z,11.70
2023-03-30T00:46:27.265Z,11.60
2023-03-30T00:49:00.411Z,11.50
2023-03-30T00:51:28.952Z,11.50
2023-03-30T00:54:01.582Z,11.50
2023-03-30T00:56:31.575Z,11.50
2023-03-30T00:59:01.739Z,11.40
2023-03-30T01:01:29.722Z,11.40
2023-03-30T01:04:00.719Z,11.40
2023-03-30T01:06:30.147Z,11.50
2023-03-30T01:08:58.815Z,11.50
2023-03-30T01:11:27.314Z,11.50
2023-03-30T01:14:01.002Z,11.40
2023-03-30T01:16:35.439Z,11.50
2023-03-30T01:19:30.000Z,11.40
2023-03-30T01:22:46.971Z,11.40
2023-03-30T01:25:37.152Z,11.40
2023-03-30T01:28:35.043Z,11.20
2023-03-30T01:31:29.882Z,11.30
2023-03-30T01:34:16.228Z,11.30
2023-03-30T01:37:13.864Z,11.30
2023-03-30T01:39:53.068Z,11.40
2023-03-30T01:42:25.467Z,11.20
2023-03-30T01:45:00.979Z,11.30
2023-03-30T01:47:38.200Z,11.30
2023-03-30T01:50:11.850Z,11.20
2023-03-30T01:52:45.991Z,11.20
2023-03-30T01:55:19.147Z,11.30
2023-03-30T01:57:52.445Z,11.30
2023-03-30T02:00:23.597Z,11.30
2023-03-30T02:02:56.295Z,11.30
2023-03-30T02:05:25.736Z,11.30
2023-03-30T02:07:57.495Z,11.30
2023-03-30T02:10:30.895Z,11.20
2023-03-30T02:13:00.356Z,11.20
2023-03-30T02:15:35.418Z,11.30
2023-03-30T02:18:03.116Z,11.30
2023-03-30T02:20:30.504Z,11.30
2023-03-30T02:22:57.956Z,11.40
2023-03-30T02:25:27.668Z,11.30
2023-03-30T02:27:55.445Z,11.40
2023-03-30T02:30:22.338Z,11.50
2023-03-30T02:32:54.607Z,11.50
2023-03-30T02:35:44.270Z,11.40
2023-03-30T02:38:56.512Z,11.30
2023-03-30T02:41:46.863Z,11.40
2023-03-30T02:44:28.484Z,11.30
2023-03-30T02:47:07.286Z,11.30
2023-03-30T02:49:52.821Z,11.50
2023-03-30T02:52:36.910Z,11.50
2023-03-30T02:55:15.309Z,11.40
2023-03-30T02:58:03.565Z,11.40
2023-03-30T03:00:39.079Z,11.40
2023-03-30T03:03:15.741Z,11.40
2023-03-30T03:05:43.341Z,11.50
2023-03-30T03:08:15.277Z,11.60
2023-03-30T03:10:42.678Z,11.60
2023-03-30T03:13:11.035Z,11.60
2023-03-30T03:15:38.578Z,11.60
2023-03-30T03:18:06.227Z,11.70
2023-03-30T03:20:33.984Z,11.60
2023-03-30T03:23:01.316Z,11.50
2023-03-30T03:25:28.538Z,11.50
2023-03-30T03:27:56.224Z,11.50
2023-03-30T03:30:24.698Z,11.50
2023-03-30T03:32:52.233Z,11.50
2023-03-30T03:35:19.696Z,11.60
2023-03-30T03:37:46.669Z,11.60
2023-03-30T03:40:15.131Z,11.70
2023-03-30T03:42:42.264Z,11.70
2023-03-30T03:45:10.463Z,11.80
2023-03-30T03:47:39.331Z,11.80
2023-03-30T03:50:10.318Z,11.80
2023-03-30T03:52:37.568Z,11.80
2023-03-30T03:55:06.578Z,11.70
2023-03-30T03:57:33.537Z,11.60
2023-03-30T04:00:00.460Z,11.50
2023-03-30T04:02:27.886Z,11.60
2023-03-30T04:04:57.983Z,11.70
2023-03-30T04:07:25.508Z,11.70
2023-03-30T04:09:52.962Z,11.70
2023-03-30T04:12:20.866Z,11.70
2023-03-30T04:14:47.816Z,11.70
2023-03-30T04:20:05.792Z,11.70
2023-03-30T04:22:36.304Z,11.70
2023-03-30T04:25:05.382Z,11.70
2023-03-30T04:27:32.847Z,11.60
2023-03-30T04:30:02.064Z,11.50
2023-03-30T04:32:34.802Z,11.60
2023-03-30T04:35:03.549Z,11.70
2023-03-30T04:37:30.959Z,11.80
2023-03-30T04:39:58.540Z,11.70
2023-03-30T04:42:30.173Z,11.60
2023-03-30T04:44:58.281Z,11.70
2023-03-30T04:47:26.105Z,11.60
2023-03-30T04:49:53.174Z,11.70
2023-03-30T04:52:21.809Z,11.60
2023-03-30T04:54:49.480Z,11.70
2023-03-30T04:57:17.584Z,11.70
2023-03-30T04:59:45.428Z,11.70
2023-03-30T05:02:14.204Z,11.70
2023-03-30T05:04:41.236Z,11.60
2023-03-30T05:07:10.048Z,11.60
2023-03-30T05:09:38.298Z,11.70
2023-03-30T05:12:06.362Z,11.80
2023-03-30T05:14:33.381Z,11.70
2023-03-30T05:17:00.873Z,11.80
2023-03-30T05:19:27.904Z,11.70
2023-03-30T05:21:55.014Z,11.70
2023-03-30T05:24:22.453Z,11.60
2023-03-30T05:26:51.244Z,11.50
2023-03-30T05:29:18.176Z,11.50
2023-03-30T05:31:45.317Z,11.50
2023-03-30T05:34:12.602Z,11.50
2023-03-30T05:36:39.533Z,11.50
2023-03-30T05:39:07.488Z,11.60
2023-03-30T05:41:34.985Z,11.50
2023-03-30T05:44:04.814Z,11.50
2023-03-30T05:46:32.292Z,11.40
2023-03-30T05:48:59.253Z,11.50
2023-03-30T05:51:26.380Z,11.60
2023-03-30T05:53:53.769Z,11.70
2023-03-30T05:56:21.454Z,11.70
2023-03-30T05:58:48.840Z,11.80
2023-03-30T06:01:17.189Z,11.80
2023-03-30T06:03:44.780Z,11.80
2023-03-30T06:06:12.266Z,11.80
2023-03-30T06:08:39.984Z,11.70
2023-03-30T06:11:07.840Z,11.70
2023-03-30T06:13:35.217Z,11.70
2023-03-30T06:16:03.667Z,11.60
2023-03-30T06:18:35.385Z,11.60
2023-03-30T06:21:06.792Z,11.70
2023-03-30T06:23:34.265Z,11.80
2023-03-30T06:26:01.398Z,11.80
2023-03-30T06:28:28.621Z,11.70
2023-03-30T06:30:55.624Z,11.70
2023-03-30T06:33:22.715Z,11.70
2023-03-30T06:35:54.221Z,11.70
2023-03-30T06:38:23.325Z,11.70
2023-03-30T06:40:51.346Z,11.80
2023-03-30T06:43:22.552Z,11.70
2023-03-30T06:45:54.911Z,11.80
2023-03-30T06:48:24.050Z,11.80
2023-03-30T06:50:54.202Z,11.80
2023-03-30T06:53:22.781Z,11.90
2023-03-30T06:55:52.545Z,12.00
2023-03-30T06:58:21.354Z,12.00
2023-03-30T07:00:48.452Z,12.00
2023-03-30T07:03:19.299Z,12.10
2023-03-30T07:05:48.589Z,12.10
2023-03-30T07:08:18.386Z,12.20
2023-03-30T07:10:48.258Z,12.30
2023-03-30T07:13:16.887Z,12.30
2023-03-30T07:15:44.049Z,12.30
2023-03-30T07:18:11.921Z,12.30
2023-03-30T07:20:39.028Z,12.30
2023-03-30T07:23:06.438Z,12.40
2023-03-30T07:25:34.824Z,12.50
2023-03-30T07:28:02.151Z,12.50
2023-03-30T07:30:29.325Z,12.60
2023-03-30T07:32:58.371Z,12.60
2023-03-30T07:35:26.557Z,12.70
2023-03-30T07:38:02.304Z,12.70
2023-03-30T07:40:31.480Z,12.80
2023-03-30T07:42:59.917Z,12.80
2023-03-30T07:45:27.113Z,12.90
2023-03-30T07:47:54.118Z,12.90
2023-03-30T07:50:21.542Z,13.00
2023-03-30T07:52:51.028Z,13.00
2023-03-30T07:55:18.347Z,13.00
2023-03-30T07:57:46.748Z,13.00
2023-03-30T08:00:17.370Z,13.00
2023-03-30T08:02:44.762Z,13.00
2023-03-30T08:05:12.062Z,13.00
2023-03-30T08:07:39.326Z,13.00
2023-03-30T08:10:08.111Z,13.00
2023-03-30T08:12:35.581Z,13.00
2023-03-30T08:15:02.686Z,13.00
2023-03-30T08:17:31.500Z,13.10
2023-03-30T08:19:58.927Z,13.20
2023-03-30T08:22:25.916Z,13.20
2023-03-30T08:24:52.897Z,13.30
2023-03-30T08:27:19.958Z,13.40
2023-03-30T08:29:46.913Z,13.50
2023-03-30T08:32:13.892Z,13.50
2023-03-30T08:34:42.726Z,13.70
2023-03-30T08:37:09.712Z,13.80
2023-03-30T08:39:37.919Z,14.00
2023-03-30T08:42:29.358Z,14.00
2023-03-30T08:45:03.678Z,14.00
2023-03-30T08:47:34.499Z,14.10
2023-03-30T08:50:12.386Z,14.10
2023-03-30T08:52:41.831Z,14.10
2023-03-30T08:55:24.688Z,14.20
2023-03-30T08:57:55.946Z,14.30
2023-03-30T09:00:34.048Z,14.30
2023-03-30T09:03:15.053Z,14.30
2023-03-30T09:05:51.589Z,14.30
2023-03-30T09:08:22.604Z,14.30
2023-03-30T09:10:56.353Z,14.30
2023-03-30T09:13:28.900Z,14.20
2023-03-30T09:16:03.000Z,14.20
2023-03-30T09:18:32.797Z,14.20
2023-03-30T09:21:03.997Z,14.20
2023-03-30T09:23:32.978Z,14.20
2023-03-30T09:26:13.704Z,14.20
2023-03-30T09:28:50.557Z,14.20
2023-03-30T09:31:22.477Z,14.20
2023-03-30T09:33:57.607Z,14.20
2023-03-30T09:36:31.611Z,14.30
2023-03-30T09:38:59.053Z,14.30
2023-03-30T09:41:47.515Z,14.30
2023-03-30T09:44:23.542Z,14.40
2023-03-30T09:46:57.121Z,14.50
2023-03-30T09:49:29.167Z,14.60
2023-03-30T09:52:04.844Z,14.60
2023-03-30T09:54:37.053Z,14.70
2023-03-30T09:57:05.351Z,14.70
2023-03-30T09:59:34.976Z,14.80
2023-03-30T10:02:21.705Z,14.80
2023-03-30T10:05:02.686Z,14.80
2023-03-30T10:07:34.769Z,14.80
2023-03-30T10:10:14.514Z,14.80
2023-03-30T10:12:41.758Z,14.80
2023-03-30T10:15:17.495Z,14.80
2023-03-30T10:17:48.336Z,14.90
2023-03-30T10:20:24.767Z,15.00
2023-03-30T10:22:55.195Z,15.10
2023-03-30T10:25:27.616Z,15.30
2023-03-30T10:27:58.091Z,15.40
2023-03-30T10:30:28.522Z,15.40
2023-03-30T10:32:59.892Z,15.60
2023-03-30T10:35:33.865Z,15.70
2023-03-30T10:38:05.162Z,15.80
2023-03-30T10:40:39.475Z,15.80
2023-03-30T10:45:02.547Z,15.80
2023-03-30T10:47:50.892Z,15.80
2023-03-30T10:50:28.407Z,15.80
2023-03-30T10:53:08.580Z,15.90
2023-03-30T10:55:43.875Z,15.90
2023-03-30T10:58:26.293Z,15.90
2023-03-30T11:01:10.924Z,16.00
2023-03-30T11:03:40.690Z,16.10
2023-03-30T11:06:17.186Z,16.10
2023-03-30T11:08:48.292Z,16.10
2023-03-30T11:11:21.045Z,16.10
2023-03-30T11:13:53.046Z,16.20
2023-03-30T11:16:26.912Z,16.20
2023-03-30T11:18:57.949Z,16.30
2023-03-30T11:21:31.414Z,16.30
2023-03-30T11:24:05.155Z,16.40
2023-03-30T11:26:37.779Z,16.50
2023-03-30T11:29:24.510Z,16.50
2023-03-30T11:32:15.033Z,16.50
2023-03-30T11:34:57.490Z,16.60
2023-03-30T11:37:31.491Z,16.60
2023-03-30T11:40:11.240Z,16.60
2023-03-30T11:42:38.593Z,16.70
2023-03-30T11:45:31.951Z,16.70
2023-03-30T11:48:15.080Z,16.80
2023-03-30T11:51:03.506Z,16.80
2023-03-30T11:53:38.074Z,16.90
2023-03-30T11:56:14.135Z,16.80
2023-03-30T11:58:47.095Z,16.80
2023-03-30T12:01:50.638Z,16.80
2023-03-30T12:04:29.413Z,16.90
2023-03-30T12:06:59.371Z,16.90
2023-03-30T12:09:29.390Z,17.00
2023-03-30T12:12:05.858Z,16.90
2023-03-30T12:15:02.825Z,16.90
2023-03-30T12:17:45.734Z,16.90
2023-03-30T12:20:28.748Z,16.90
2023-03-30T12:23:01.231Z,16.90
2023-03-30T12:25:39.221Z,16.90
2023-03-30T12:28:14.057Z,16.90
2023-03-30T12:30:55.286Z,17.00
2023-03-30T12:33:28.704Z,17.00
2023-03-30T12:36:02.376Z,16.90
2023-03-30T12:41:26.476Z,16.60
2023-03-30T12:44:29.691Z,16.30
2023-03-30T12:47:13.843Z,15.90
2023-03-30T12:49:56.811Z,15.30
2023-03-30T12:52:39.518Z,15.10
2023-03-30T12:55:24.182Z,15.10
2023-03-30T12:58:21.425Z,15.10
2023-03-30T13:01:16.891Z,15.30
2023-03-30T13:03:52.313Z,15.40
2023-03-30T13:06:27.020Z,15.40
2023-03-30T13:09:04.333Z,15.40
2023-03-30T13:14:46.817Z,15.50
2023-03-30T13:17:20.387Z,15.50
2023-03-30T13:20:25.908Z,15.50
2023-03-30T13:23:03.175Z,15.60
2023-03-30T13:25:40.631Z,15.70
2023-03-30T13:28:46.451Z,15.70
2023-03-30T13:31:50.796Z,15.70
2023-03-30T13:34:33.518Z,15.80
2023-03-30T13:37:12.349Z,16.00
2023-03-30T13:39:45.804Z,16.00
2023-03-30T13:42:42.874Z,16.10
2023-03-30T13:45:32.680Z,16.20
2023-03-30T13:48:16.942Z,16.40
2023-03-30T13:50:46.976Z,16.50
2023-03-30T13:53:17.185Z,16.50
2023-03-30T13:55:48.027Z,16.60
2023-03-30T14:01:10.006Z,16.60
2023-03-30T14:03:41.557Z,16.60
2023-03-30T14:06:18.258Z,16.40
2023-03-30T14:08:48.267Z,15.80
2023-03-30T14:11:22.088Z,15.50
2023-03-30T14:13:53.618Z,15.20
2023-03-30T14:16:23.870Z,14.90
2023-03-30T14:18:51.726Z,14.90
2023-03-30T14:21:21.838Z,14.80
2023-03-30T14:23:52.638Z,14.80
2023-03-30T14:26:24.314Z,14.70
2023-03-30T14:28:57.391Z,14.80
2023-03-30T14:31:27.301Z,14.70
2023-03-30T14:33:54.510Z,14.70
2023-03-30T14:36:22.300Z,14.60
2023-03-30T14:38:52.071Z,14.50
2023-03-30T14:41:27.298Z,14.40
2023-03-30T14:43:59.320Z,14.40
2023-03-30T14:46:33.219Z,14.50
2023-03-30T14:49:00.805Z,14.60
2023-03-30T14:51:38.246Z,14.70
2023-03-30T14:54:07.561Z,14.80
2023-03-30T14:56:35.564Z,14.90
2023-03-30T14:59:05.592Z,15.00
2023-03-30T15:01:34.195Z,14.90
2023-03-30T15:04:10.196Z,15.00
2023-03-30T15:06:38.111Z,15.00
2023-03-30T15:09:15.500Z,15.10
2023-03-30T15:11:44.331Z,15.10
2023-03-30T15:14:16.603Z,15.10
2023-03-30T15:16:44.723Z,15.20
2023-03-30T15:19:17.932Z,15.20
2023-03-30T15:21:46.045Z,15.20
2023-03-30T15:24:17.738Z,15.30
2023-03-30T15:26:48.525Z,15.20
2023-03-30T15:29:19.683Z,15.20
2023-03-30T15:31:46.609Z,15.20
2023-03-30T15:34:16.833Z,15.20
2023-03-30T15:36:44.635Z,15.30
2023-03-30T15:39:21.987Z,15.30
2023-03-30T15:41:59.111Z,15.30
2023-03-30T15:44:28.652Z,15.30
2023-03-30T15:46:57.757Z,15.20
2023-03-30T15:49:31.830Z,15.20
2023-03-30T15:52:02.242Z,15.20
2023-03-30T15:54:36.261Z,15.20
2023-03-30T15:57:07.445Z,15.20
2023-03-30T15:59:41.464Z,15.20
2023-03-30T16:02:16.094Z,15.20
2023-03-30T16:04:43.232Z,15.20
2023-03-30T16:07:17.264Z,15.20
2023-03-30T16:09:44.390Z,15.20
2023-03-30T16:12:14.618Z,15.20
2023-03-30T16:14:43.414Z,15.20
2023-03-30T16:17:13.061Z,15.10
2023-03-30T16:19:41.633Z,15.20
2023-03-30T16:22:09.300Z,15.20
2023-03-30T16:24:36.992Z,15.20
2023-03-30T16:27:05.865Z,15.10
2023-03-30T16:29:33.501Z,15.00
2023-03-30T16:32:02.308Z,15.00
2023-03-30T16:34:29.364Z,15.10
2023-03-30T16:36:56.674Z,15.10
2023-03-30T16:39:27.191Z,15.20
2023-03-30T16:41:56.144Z,15.20
2023-03-30T16:44:25.380Z,15.20
2023-03-30T16:46:53.047Z,15.20
2023-03-30T16:49:24.363Z,15.20
2023-03-30T16:51:55.216Z,15.10
2023-03-30T16:54:31.864Z,15.10
2023-03-30T16:57:00.457Z,15.00
2023-03-30T16:59:30.333Z,15.00
2023-03-30T17:01:58.203Z,15.00
2023-03-30T17:04:27.330Z,14.90
2023-03-30T17:06:55.189Z,14.90
2023-03-30T17:09:22.344Z,14.90
2023-03-30T17:11:50.354Z,14.90
2023-03-30T17:14:18.127Z,14.90
2023-03-30T17:16:45.730Z,14.80
2023-03-30T17:22:00.621Z,14.80
2023-03-30T17:24:27.668Z,14.80
2023-03-30T17:26:56.680Z,14.70
2023-03-30T17:29:24.174Z,14.70
2023-03-30T17:31:51.743Z,14.60
2023-03-30T17:34:18.719Z,14.70
2023-03-30T17:36:46.140Z,14.70
2023-03-30T17:39:15.175Z,14.60
2023-03-30T17:41:42.277Z,14.60
2023-03-30T17:44:09.312Z,14.60
2023-03-30T17:46:36.379Z,14.50
2023-03-30T17:49:03.430Z,14.50
2023-03-30T17:51:31.382Z,14.40
2023-03-30T17:53:58.424Z,14.50
2023-03-30T17:56:27.779Z,14.50
2023-03-30T17:58:54.772Z,14.40
2023-03-30T18:01:21.752Z,14.40
2023-03-30T18:03:49.310Z,14.40
2023-03-30T18:06:16.809Z,14.40
2023-03-30T18:08:43.996Z,14.40
2023-03-30T18:11:11.255Z,14.30
2023-03-30T18:13:40.050Z,14.30
2023-03-30T18:16:07.779Z,14.30
2023-03-30T18:18:34.847Z,14.20
2023-03-30T18:21:04.742Z,14.20
2023-03-30T18:23:37.686Z,14.20
2023-03-30T18:26:09.429Z,14.20
2023-03-30T18:28:43.272Z,14.20
2023-03-30T18:31:11.071Z,14.30
2023-03-30T18:35:29.027Z,14.20
2023-03-30T18:37:56.591Z,14.20
2023-03-30T18:40:26.938Z,14.20
2023-03-30T18:42:54.845Z,14.20
2023-03-30T18:45:23.978Z,14.10
2023-03-30T18:47:51.326Z,14.10
2023-03-30T18:50:21.869Z,14.10
2023-03-30T18:52:50.632Z,14.10
2023-03-30T18:55:17.915Z,14.10
2023-03-30T18:57:44.978Z,14.00
2023-03-30T19:00:21.316Z,14.00
2023-03-30T19:02:49.322Z,14.00
2023-03-30T19:05:18.178Z,14.00
2023-03-30T19:07:45.744Z,14.00
2023-03-30T19:10:16.043Z,14.00
2023-03-30T19:12:43.083Z,13.90
2023-03-30T19:15:19.219Z,13.80
2023-03-30T19:17:46.920Z,13.80
2023-03-30T19:20:16.400Z,13.80
2023-03-30T19:22:43.625Z,13.80
2023-03-30T19:25:12.064Z,13.80
2023-03-30T19:27:52.045Z,13.60
2023-03-30T19:30:28.800Z,13.50
2023-03-30T19:32:57.408Z,13.50
2023-03-30T19:35:25.100Z,13.30
2023-03-30T19:37:53.137Z,13.20
2023-03-30T19:40:21.194Z,13.20
2023-03-30T19:42:50.145Z,13.20
2023-03-30T19:45:19.330Z,13.20
2023-03-30T19:47:46.692Z,13.10
2023-03-30T19:50:17.678Z,13.00
2023-03-30T19:52:46.959Z,13.00
2023-03-30T19:55:14.233Z,12.90
2023-03-30T19:57:41.676Z,13.00
2023-03-30T20:00:21.349Z,13.00
2023-03-30T20:02:50.673Z,13.10
2023-03-30T20:05:18.718Z,13.20
2023-03-30T20:07:46.615Z,13.30
2023-03-30T20:10:16.539Z,13.30
2023-03-30T20:12:43.416Z,13.20
2023-03-30T20:15:12.259Z,13.30
2023-03-30T20:20:25.466Z,13.40
2023-03-30T20:22:55.998Z,13.30
2023-03-30T20:25:23.713Z,13.20
2023-03-30T20:27:50.981Z,13.10
2023-03-30T20:30:19.753Z,12.90
2023-03-30T20:32:55.953Z,12.70
2023-03-30T20:35:31.896Z,12.80
2023-03-30T20:37:58.932Z,12.80
2023-03-30T20:40:27.228Z,12.70
2023-03-30T20:42:54.055Z,12.70
2023-03-30T20:45:25.996Z,12.70
2023-03-30T20:47:53.826Z,12.80
2023-03-30T20:50:21.261Z,12.90
2023-03-30T20:52:48.089Z,13.00
2023-03-30T20:55:14.982Z,13.10
2023-03-30T20:57:43.200Z,13.20
2023-03-30T21:00:12.492Z,13.20
2023-03-30T21:02:40.761Z,13.30
2023-03-30T21:05:08.595Z,13.30
2023-03-30T21:07:38.114Z,13.30
2023-03-30T21:10:05.918Z,13.40
2023-03-30T21:12:33.221Z,13.40
2023-03-30T21:15:00.078Z,13.40
2023-03-30T21:17:27.091Z,13.40
2023-03-30T21:19:55.312Z,13.40
2023-03-30T21:22:22.356Z,13.40
2023-03-30T21:24:49.218Z,13.40
2023-03-30T21:27:16.289Z,13.50
2023-03-30T21:29:43.203Z,13.50
2023-03-30T21:32:10.015Z,13.50
2023-03-30T21:34:36.861Z,13.40
2023-03-30T21:37:05.313Z,13.50
2023-03-30T21:39:32.654Z,13.50
2023-03-30T21:41:59.473Z,13.40
2023-03-30T21:44:26.967Z,13.50
2023-03-30T21:46:53.862Z,13.50
2023-03-30T21:49:20.933Z,13.50
2023-03-30T21:51:48.673Z,13.50
2023-03-30T21:54:19.092Z,13.50
2023-03-30T21:56:46.304Z,13.50
2023-03-30T21:59:13.642Z,13.50
2023-03-30T22:01:40.773Z,13.50
2023-03-30T22:04:08.128Z,13.50
2023-03-30T22:06:35.531Z,13.50
2023-03-30T22:09:02.444Z,13.40
2023-03-30T22:11:31.340Z,13.40
2023-03-30T22:13:58.632Z,13.40
2023-03-30T22:16:35.040Z,13.40
2023-03-30T22:19:02.929Z,13.30
2023-03-30T22:21:33.990Z,13.30
2023-03-30T22:24:01.251Z,13.30
2023-03-30T22:26:28.136Z,13.30
2023-03-30T22:28:56.666Z,13.30
2023-03-30T22:31:23.482Z,13.30
2023-03-30T22:33:51.226Z,13.30
2023-03-30T22:36:20.884Z,13.10
2023-03-30T22:38:48.289Z,13.10
2023-03-30T22:41:16.070Z,13.20
2023-03-30T22:43:42.915Z,13.20
2023-03-30T22:46:12.063Z,13.30
2023-03-30T22:48:41.272Z,13.20
2023-03-30T22:51:08.851Z,13.20
2023-03-30T22:53:35.799Z,13.20
2023-03-30T22:56:03.451Z,13.10
2023-03-30T22:58:30.396Z,13.10
2023-03-30T23:01:01.342Z,13.10
2023-03-30T23:03:29.703Z,13.00
2023-03-30T23:06:01.476Z,13.10
2023-03-30T23:08:29.486Z,13.10
2023-03-30T23:10:57.285Z,13.10
2023-03-30T23:13:24.733Z,13.10
2023-03-30T23:15:52.455Z,13.10
2023-03-30T23:18:19.279Z,13.10
2023-03-30T23:20:48.273Z,13.10
2023-03-30T23:23:15.538Z,13.20
2023-03-30T23:25:49.770Z,13.20
2023-03-30T23:28:17.663Z,13.10
2023-03-30T23:30:45.208Z,13.00
2023-03-30T23:33:13.828Z,13.00
2023-03-30T23:35:47.566Z,12.80
2023-03-30T23:38:16.230Z,12.70
2023-03-30T23:40:43.487Z,12.80
2023-03-30T23:43:10.424Z,12.80
2023-03-30T23:45:37.677Z,12.80
2023-03-30T23:48:05.495Z,12.90
2023-03-30T23:50:32.956Z,12.90
2023-03-30T23:53:00.213Z,12.90
2023-03-30T23:55:29.063Z,12.90
2023-03-30T23:57:56.356Z,13.00
